Royse City's Hourly Summary for Tuesday, May 15, 2018
Hour Temp
(f)
RH
(%)
Solar Rad.
(MJ/m2)
Rainfall
(in)
Wind
(mph)
5/15/2018 12:00 AM 75 74 0 0 0.77
5/15/2018 1:00 AM 74 76 0 0 0.49
5/15/2018 2:00 AM 74 76 0 0 0
5/15/2018 3:00 AM 73 76 0 0 0
5/15/2018 4:00 AM 73 74 0 0 0
5/15/2018 5:00 AM 74 73 0 0 0
5/15/2018 6:00 AM 73 74 0 0 0
5/15/2018 7:00 AM 71 78 0 0 0
5/15/2018 8:00 AM 71 82 0.15 0 0.66
5/15/2018 9:00 AM 71 81 0.27 0 1.29
5/15/2018 10:00 AM 72 80 0.33 0 0.46
5/15/2018 11:00 AM 71 79 0.41 0 0.18
5/15/2018 12:00 PM 74 64 1.69 0.01 0.76
5/15/2018 1:00 PM 79 54 2.31 0 2.45
5/15/2018 2:00 PM 82 47 2.52 0 2.03
5/15/2018 3:00 PM 85 44 2.76 0 1.91
5/15/2018 4:00 PM 86 37 2.71 0 1.98
5/15/2018 5:00 PM 87 40 1.96 0 1.56
5/15/2018 6:00 PM 86 40 0.62 0 0.9
5/15/2018 7:00 PM 79 46 0.38 0 1.93
5/15/2018 8:00 PM 75 65 0.15 0 2.89
5/15/2018 9:00 PM 72 69 0.01 0 2.23
5/15/2018 10:00 PM 69 74 0 0 0.42
5/15/2018 11:00 PM 69 78 0 0 0.33
Data Summary 75 65 16.27 0.01 0.97